Latest Coastal Weather Observations for Parndana

IDS60701

Issued at 6:01 am CST Wednesday 28 September 2016 (issued every 10 minutes, with the page automatically refreshed every 10 minutes)

About coastal observations | Map of coastal stations | Coastal observations for SA | Marine services | Other Formats
Station Details ID: 022843 Name: PARNDANA CFS AWS Lat: -35.79 Lon: 137.25 Height: 165.0 m
Data from the previous 72 hours. | See also: Recent months at Parndana
Date/Time
CST
Temp
°C
Wind Pressure Rain since
9am
mm
Weather Cloud Vis
km
Sea
Height
m
Swell
Dir  Spd
kts
Gust
kts
hPa Trend Height
m
Period
s
Dir
28/06:00am 9.4 NNE 8 11 - - 0.0 - - - - - - -
28/05:30am 8.9 NNE 8 10 - - 0.0 - - - - - - -
28/05:00am 8.5 NNE 6 9 - - 0.0 - - - - - - -
28/04:30am 7.9 NNE 5 7 - - 0.0 - - - - - - -
28/04:00am 7.8 NNE 5 6 - - 0.0 - - - - - - -
28/03:30am 7.9 NNE 5 6 - - 0.0 - - - - - - -
28/03:00am 8.2 N 6 7 - - 0.0 - - - - - - -
28/02:30am 8.0 N 6 7 - - 0.0 - - - - - - -
28/02:00am 8.3 N 7 9 - - 0.0 - - - - - - -
28/01:30am 9.0 N 8 10 - - 0.0 - - - - - - -
28/01:00am 8.4 N 8 9 - - 0.0 - - - - - - -
28/12:30am 8.6 N 7 9 - - 0.0 - - - - - - -
28/12:00am 9.0 N 8 9 - - 0.0 - - - - - - -
 
Date/Time
CST
Temp
°C
Wind Pressure Rain since
9am
mm
Weather Cloud Vis
km
Sea
Height
m
Swell
Dir  Spd
kts
Gust
kts
hPa Trend Height
m
Period
s
Dir
27/11:30pm 8.9 N 6 7 - - 0.0 - - - - - - -
27/11:00pm 8.9 N 5 7 - - 0.0 - - - - - - -
27/10:30pm 8.5 N 5 6 - - 0.0 - - - - - - -
27/10:00pm 8.5 N 5 6 - - 0.0 - - - - - - -
27/09:30pm 9.0 N 5 5 - - 0.0 - - - - - - -
27/09:00pm 9.9 NNE 4 4 - - 0.0 - - - - - - -
27/08:30pm 10.4 N 3 4 - - 0.0 - - - - - - -
27/08:00pm 11.3 NNW 4 5 - - 0.0 - - - - - - -
27/07:30pm 11.1 N 4 5 - - 0.0 - - - - - - -
27/07:00pm 10.9 NNW 4 6 - - 0.0 - - - - - - -
27/06:30pm 10.9 NNW 5 7 - - 0.0 - - - - - - -
27/06:00pm 12.0 NW 7 9 - - 0.0 - - - - - - -
27/05:30pm 12.4 NW 9 11 - - 0.0 - - - - - - -
27/05:00pm 12.7 NW 10 14 - - 0.0 - - - - - - -
27/04:30pm 13.9 NW 12 17 - - 0.0 - - - - - - -
27/04:00pm 13.2 NW 13 17 - - 0.0 - - - - - - -
27/03:30pm 13.5 NW 12 17 - - 0.0 - - - - - - -
27/03:00pm 13.8 NW 13 19 - - 0.0 - - - - - - -
27/02:30pm 13.5 NW 15 20 - - 0.0 - - - - - - -
27/02:00pm 13.7 WNW 15 20 - - 0.0 - - - - - - -
27/01:30pm 13.5 NW 15 20 - - 0.0 - - - - - - -
27/01:00pm 13.6 NW 15 22 - - 0.0 - - - - - - -
27/12:30pm 13.8 NW 14 19 - - 0.0 - - - - - - -
27/12:00pm 13.3 NW 15 20 - - 0.0 - - - - - - -
27/11:30am 13.2 NW 15 20 - - 0.0 - - - - - - -
27/11:00am 13.7 NW 13 18 - - 0.0 - - - - - - -
27/10:30am 13.9 NW 13 18 - - 0.0 - - - - - - -
27/10:00am 13.9 NW 15 20 - - 0.0 - - - - - - -
27/09:30am 13.6 WNW 13 16 - - 0.0 - - - - - - -
27/09:00am 13.1 NW 13 19 - - 0.2 - - - - - - -
27/08:30am 12.0 WNW 11 15 - - 0.2 - - - - - - -
27/08:00am 11.1 WNW 7 10 - - 0.2 - - - - - - -
27/07:30am 9.6 WNW 7 9 - - 0.2 - - - - - - -
27/07:00am 7.8 WNW 6 7 - - 0.2 - - - - - - -
27/06:30am 6.5 NW 6 8 - - 0.2 - - - - - - -
27/06:00am 6.2 WNW 6 8 - - 0.2 - - - - - - -
27/05:30am 5.6 WNW 6 8 - - 0.2 - - - - - - -
27/05:00am 5.5 NW 6 6 - - 0.2 - - - - - - -
27/04:30am 5.3 WNW 6 7 - - 0.2 - - - - - - -
27/04:00am 6.7 W 8 10 - - 0.2 - - - - - - -
27/03:30am 5.2 WNW 8 8 - - 0.2 - - - - - - -
27/03:00am 5.7 WNW 8 9 - - 0.2 - - - - - - -
27/02:30am 5.3 WNW 7 8 - - 0.2 - - - - - - -
27/02:00am 5.8 W 7 8 - - 0.2 - - - - - - -
27/01:30am 5.5 WNW 6 8 - - 0.2 - - - - - - -
27/01:00am 5.8 WNW 5 6 - - 0.2 - - - - - - -
27/12:30am 5.5 WNW 7 7 - - 0.2 - - - - - - -
27/12:00am 5.6 WNW 7 7 - - 0.2 - - - - - - -
 
Date/Time
CST
Temp
°C
Wind Pressure Rain since
9am
mm
Weather Cloud Vis
km
Sea
Height
m
Swell
Dir  Spd
kts
Gust
kts
hPa Trend Height
m
Period
s
Dir
26/11:30pm 6.0 WNW 6 7 - - 0.2 - - - - - - -
26/11:00pm 6.6 W 6 7 - - 0.2 - - - - - - -
26/10:30pm 7.8 WSW 10 13 - - 0.2 - - - - - - -
26/10:00pm 6.7 W 7 8 - - 0.2 - - - - - - -
26/09:30pm 7.8 W 8 10 - - 0.2 - - - - - - -
26/09:00pm 7.1 W 8 10 - - 0.2 - - - - - - -
26/08:30pm 6.8 W 6 7 - - 0.2 - - - - - - -
26/08:00pm 7.6 W 8 10 - - 0.2 - - - - - - -
26/07:30pm 7.8 W 7 9 - - 0.2 - - - - - - -
26/07:00pm 8.1 W 7 10 - - 0.2 - - - - - - -
26/06:30pm 9.5 WSW 10 15 - - 0.2 - - - - - - -
26/06:00pm 10.1 WSW 11 16 - - 0.2 - - - - - - -
26/05:30pm 10.7 WSW 12 17 - - 0.2 - - - - - - -
26/05:00pm 11.3 WSW 16 21 - - 0.2 - - - - - - -
26/04:30pm 11.2 WSW 17 23 - - 0.2 - - - - - - -
26/04:00pm 11.9 WSW 14 23 - - 0.2 - - - - - - -
26/03:30pm 13.1 WSW 16 23 - - 0.2 - - - - - - -
26/03:00pm 12.7 WSW 14 23 - - 0.2 - - - - - - -
26/02:30pm 12.9 WSW 22 29 - - 0.2 - - - - - - -
26/02:00pm 12.6 WSW 20 28 - - 0.2 - - - - - - -
26/01:30pm 13.4 W 22 28 - - 0.2 - - - - - - -
26/01:00pm 13.2 W 21 32 - - 0.2 - - - - - - -
26/12:30pm 13.2 WNW 20 27 - - 0.0 - - - - - - -
26/12:18pm 13.1 WNW 19 29 - - 0.0 - - - - - - -
26/12:00pm 13.0 WNW 18 25 - - 0.0 - - - - - - -
26/11:30am 13.4 WNW 19 25 - - 0.0 - - - - - - -
26/11:00am 13.3 W 18 25 - - 0.0 - - - - - - -
26/10:30am 12.9 WNW 18 25 - - 0.0 - - - - - - -
26/10:00am 11.7 W 14 22 - - 0.0 - - - - - - -
26/09:58am 11.6 WNW 14 22 - - 0.0 - - - - - - -
26/09:30am 10.2 WNW 9 12 - - 0.0 - - - - - - -
26/09:00am 9.2 WNW 7 12 - - 6.0 - - - - - - -
26/08:30am 9.0 WNW 10 17 - - 6.0 - - - - - - -
26/08:00am 8.5 WNW 18 24 - - 6.0 - - - - - - -
26/07:30am 9.6 WNW 16 21 - - 4.4 - - - - - - -
26/07:00am 10.8 NW 14 23 - - 3.2 - - - - - - -
26/06:30am 10.2 NW 8 19 - - 3.0 - - - - - - -
26/06:00am 9.8 N 10 13 - - 2.6 - - - - - - -
26/05:30am 9.3 N 8 10 - - 2.6 - - - - - - -
26/05:00am 9.1 N 8 12 - - 2.6 - - - - - - -
26/04:30am 9.6 NNW 10 14 - - 2.6 - - - - - - -
26/04:00am 8.8 N 8 11 - - 2.6 - - - - - - -
26/03:30am 8.4 N 9 12 - - 2.6 - - - - - - -
26/03:00am 7.6 N 7 8 - - 2.6 Recent precip. - - - - - -
26/02:30am 7.8 N 5 6 - - 2.4 - - - - - - -
26/02:00am 7.7 NNE 5 7 - - 2.4 - - - - - - -
26/01:30am 8.5 N 7 8 - - 2.4 - - - - - - -
26/01:00am 8.4 N 5 7 - - 2.4 - - - - - - -
26/12:30am 8.9 N 6 9 - - 2.4 - - - - - - -
26/12:00am 9.2 N 6 8 - - 2.4 - - - - - - -
 
Date/Time
CST
Temp
°C
Wind Pressure Rain since
9am
mm
Weather Cloud Vis
km
Sea
Height
m
Swell
Dir  Spd
kts
Gust
kts
hPa Trend Height
m
Period
s
Dir
25/11:30pm 9.4 NNW 6 8 - - 2.4 - - - - - - -
25/11:00pm 9.2 NNW 7 11 - - 2.4 - - - - - - -
25/10:30pm 9.1 NW 8 14 - - 2.0 - - - - - - -
25/10:00pm 8.6 NW 4 5 - - 1.0 - - - - - - -
25/09:30pm 9.4 WNW 10 13 - - 0.8 - - - - - - -
25/09:00pm 9.5 NW 4 5 - - 0.6 Rain - - - - - -
25/08:30pm 9.3 N 4 5 - - 0.4 - - - - - - -
25/08:00pm 9.1 NNW 5 7 - - 0.2 - - - - - - -
25/07:30pm 8.2 NW 5 6 - - 0.0 - - - - - - -
25/07:00pm 8.6 WNW 6 8 - - 0.0 - - - - - - -
25/06:30pm 9.4 NW 6 6 - - 0.0 - - - - - - -
25/06:00pm 10.6 NW 7 10 - - 0.0 - - - - - - -
25/05:30pm 11.0 NW 6 8 - - 0.0 - - - - - - -
25/05:00pm 10.9 NW 6 7 - - 0.0 - - - - - - -
25/04:30pm 11.5 WNW 10 12 - - 0.0 - - - - - - -
25/04:00pm 12.1 NW 11 14 - - 0.0 - - - - - - -
25/03:30pm 13.2 NW 12 16 - - 0.0 - - - - - - -
25/03:00pm 13.6 NW 12 17 - - 0.0 - - - - - - -
25/02:30pm 13.2 NW 13 18 - - 0.0 - - - - - - -
25/02:00pm 13.4 NW 15 20 - - 0.0 - - - - - - -
25/01:30pm 14.2 NW 15 20 - - 0.0 - - - - - - -
25/01:00pm 13.4 NW 14 19 - - 0.0 - - - - - - -
25/12:30pm 13.6 NW 14 19 - - 0.0 - - - - - - -
25/12:00pm 14.1 NW 10 17 - - 0.0 - - - - - - -
25/11:30am 14.2 NNW 7 12 - - 0.0 - - - - - - -
25/11:00am 12.6 NW 8 13 - - 0.0 - - - - - - -
25/10:30am 12.9 WNW 6 11 - - 0.0 - - - - - - -
25/10:00am 12.1 WNW 5 9 - - 0.0 - - - - - - -
25/09:30am 10.3 W 10 13 - - 0.0 - - - - - - -
25/09:00am 10.3 WSW 11 16 - - 0.6 - - - - - - -
25/08:30am 11.4 W 7 12 - - 0.6 - - - - - - -
25/08:00am 10.4 WSW 6 9 - - 0.6 - - - - - - -
25/07:30am 9.1 WNW 5 7 - - 0.6 - - - - - - -
25/07:00am 7.2 WNW 6 7 - - 0.6 - - - - - - -
25/06:30am 7.4 WNW 3 4 - - 0.6 - - - - - - -

Other Formats:

Comma delimited format used in spreadsheet applications
http://www.bom.gov.au/fwo/IDS60701/IDS60701.94807.axf

JavaScript Object Notation format (JSON) in row-major order
http://www.bom.gov.au/fwo/IDS60701/IDS60701.94807.json